Terminal Aerodrome Forecast
Issued by NWS

Home | Current Version | Previous Version | Text Only | Print | Product List | Glossary On
Versions: 1 2 3 4 5 6 7 8 9 10 11 12 13 14 15 16 17
000
FTUS44 KLZK 310300 AAB
TAFLLQ
TAF AMD
KLLQ 310305Z 3103/3124 VRB03KT P6SM VCSH SCT007 OVC020
      TEMPO 3103/3107 5SM -RA BR BKN007
     FM310700 VRB03KT 5SM BR VCSH OVC007
      TEMPO 3109/3113 2SM BR OVC005
     FM311500 21007KT P6SM SCT007 BKN015
     FM311800 20009KT P6SM SCT035 BKN250=

USA.gov is the U.S. government's official web portal to all federal, state and local government web resources and services.